Terminal Aerodrome Forecast
Issued by NWS

Current Version | Previous Version | Graphics & Text | Print | Product List | Glossary On
Versions: 1 2 3 4 5 6 7 8 9 10 11 12 13 14 15 16 17 18 19 20 21 22 23 24 25 26 27 28 29 30 31 32 33 34 35 36 37 38 39 40
000
FTUS41 KRNK 302320
TAFLWB
TAF
KLWB 302320Z 0100/0124 25006KT P6SM VCTS SCT035 BKN050CB
      TEMPO 0100/0102 VRB20G30KT 4SM TSRA BKN035CB
     FM010200 25003KT 6SM -SHRA SCT040 BKN100
     FM010700 00000KT 4SM BR OVC020
      TEMPO 0109/0112 1/2SM FG BKN001
     FM011300 26005KT P6SM SCT045 BKN100
     FM011600 27007KT P6SM BKN040=

USA.gov is the U.S. government's official web portal to all federal, state and local government web resources and services.